sensor_id;sensor_type;location;lat;lon;timestamp;pressure;altitude;pressure_sealevel;temperature;humidity
26719;BME280;14326;50.794;6.060;2022-10-26T00:01:07;99426.69;;;11.86;100.00
26719;BME280;14326;50.794;6.060;2022-10-26T00:03:36;99421.38;;;11.83;100.00
26719;BME280;14326;50.794;6.060;2022-10-26T00:06:05;99418.69;;;11.81;100.00
26719;BME280;14326;50.794;6.060;2022-10-26T00:08:32;99417.78;;;11.81;100.00
26719;BME280;14326;50.794;6.060;2022-10-26T00:10:59;99406.25;;;11.82;100.00
26719;BME280;14326;50.794;6.060;2022-10-26T00:13:26;99411.59;;;11.82;100.00
26719;BME280;14326;50.794;6.060;2022-10-26T00:15:54;99416.91;;;11.83;100.00
26719;BME280;14326;50.794;6.060;2022-10-26T00:18:21;99415.13;;;11.84;100.00
26719;BME280;14326;50.794;6.060;2022-10-26T00:20:48;99411.59;;;11.83;100.00
26719;BME280;14326;50.794;6.060;2022-10-26T00:23:15;99412.44;;;11.84;100.00
26719;BME280;14326;50.794;6.060;2022-10-26T00:25:41;99399.13;;;11.79;100.00
26719;BME280;14326;50.794;6.060;2022-10-26T00:28:08;99403.59;;;11.82;100.00
26719;BME280;14326;50.794;6.060;2022-10-26T00:30:37;99402.69;;;11.84;100.00
26719;BME280;14326;50.794;6.060;2022-10-26T00:33:08;99403.56;;;11.85;100.00
26719;BME280;14326;50.794;6.060;2022-10-26T00:35:35;99411.59;;;11.88;100.00
26719;BME280;14326;50.794;6.060;2022-10-26T00:38:02;99409.81;;;11.88;100.00
26719;BME280;14326;50.794;6.060;2022-10-26T00:40:29;99400.03;;;11.90;100.00
26719;BME280;14326;50.794;6.060;2022-10-26T00:42:55;99403.56;;;12.02;100.00
26719;BME280;14326;50.794;6.060;2022-10-26T00:45:24;99401.81;;;12.07;100.00
26719;BME280;14326;50.794;6.060;2022-10-26T00:47:54;99408.94;;;12.12;100.00
26719;BME280;14326;50.794;6.060;2022-10-26T00:50:25;99403.59;;;12.24;100.00
26719;BME280;14326;50.794;6.060;2022-10-26T00:52:53;99397.31;;;12.47;100.00
26719;BME280;14326;50.794;6.060;2022-10-26T00:55:24;99391.91;;;12.66;100.00
26719;BME280;14326;50.794;6.060;2022-10-26T00:57:52;99400.75;;;12.90;100.00
26719;BME280;14326;50.794;6.060;2022-10-26T01:00:20;99396.22;;;13.11;100.00
26719;BME280;14326;50.794;6.060;2022-10-26T01:02:47;99386.34;;;13.30;100.00
26719;BME280;14326;50.794;6.060;2022-10-26T01:05:17;99384.41;;;13.55;100.00
26719;BME280;14326;50.794;6.060;2022-10-26T01:07:46;99386.91;;;13.79;100.00
26719;BME280;14326;50.794;6.060;2022-10-26T01:10:13;99379.69;;;13.90;100.00
26719;BME280;14326;50.794;6.060;2022-10-26T01:12:40;99376.84;;;14.12;98.67
26719;BME280;14326;50.794;6.060;2022-10-26T01:15:08;99365.16;;;14.22;97.25
26719;BME280;14326;50.794;6.060;2022-10-26T01:17:45;99370.28;;;14.45;93.59
26719;BME280;14326;50.794;6.060;2022-10-26T01:20:45;99363.97;;;14.52;93.24
26719;BME280;14326;50.794;6.060;2022-10-26T01:23:25;99363.06;;;14.54;92.92
26719;BME280;14326;50.794;6.060;2022-10-26T01:29:00;99358.63;;;14.55;92.95
26719;BME280;14326;50.794;6.060;2022-10-26T01:31:39;99355.06;;;14.51;93.14
26719;BME280;14326;50.794;6.060;2022-10-26T01:34:10;99355.91;;;14.56;90.94
26719;BME280;14326;50.794;6.060;2022-10-26T01:36:41;99349.63;;;14.60;90.98
26719;BME280;14326;50.794;6.060;2022-10-26T01:39:14;99347.81;;;14.61;90.26
26719;BME280;14326;50.794;6.060;2022-10-26T01:41:45;99344.97;;;14.76;87.98
26719;BME280;14326;50.794;6.060;2022-10-26T01:44:17;99339.53;;;14.84;87.47
26719;BME280;14326;50.794;6.060;2022-10-26T01:46:47;99344.72;;;14.96;87.19
26719;BME280;14326;50.794;6.060;2022-10-26T01:49:18;99339.28;;;15.02;86.43
26719;BME280;14326;50.794;6.060;2022-10-26T01:51:48;99336.50;;;15.08;85.95
26719;BME280;14326;50.794;6.060;2022-10-26T01:54:15;99339.94;;;15.19;86.54
26719;BME280;14326;50.794;6.060;2022-10-26T01:56:44;99346.13;;;15.24;87.62
26719;BME280;14326;50.794;6.060;2022-10-26T01:59:24;99338.03;;;15.27;87.93
26719;BME280;14326;50.794;6.060;2022-10-26T02:05:25;99329.06;;;15.30;89.99
26719;BME280;14326;50.794;6.060;2022-10-26T02:07:59;99342.63;;;15.19;92.10
26719;BME280;14326;50.794;6.060;2022-10-26T02:10:39;99332.00;;;15.13;91.50
26719;BME280;14326;50.794;6.060;2022-10-26T02:13:14;99348.97;;;15.13;91.90
26719;BME280;14326;50.794;6.060;2022-10-26T02:15:47;99342.72;;;15.10;91.90
26719;BME280;14326;50.794;6.060;2022-10-26T02:18:23;99335.59;;;15.09;91.37
26719;BME280;14326;50.794;6.060;2022-10-26T02:20:56;99340.06;;;15.08;89.79
26719;BME280;14326;50.794;6.060;2022-10-26T02:23:25;99333.78;;;15.11;88.49
26719;BME280;14326;50.794;6.060;2022-10-26T02:25:55;99328.50;;;15.06;88.95
26719;BME280;14326;50.794;6.060;2022-10-26T02:28:27;99337.38;;;15.08;88.14
26719;BME280;14326;50.794;6.060;2022-10-26T02:30:58;99330.25;;;15.09;87.34
26719;BME280;14326;50.794;6.060;2022-10-26T02:33:29;99333.81;;;15.08;88.13
26719;BME280;14326;50.794;6.060;2022-10-26T02:35:59;99328.47;;;15.08;87.33
26719;BME280;14326;50.794;6.060;2022-10-26T02:38:28;99327.44;;;15.18;86.03
26719;BME280;14326;50.794;6.060;2022-10-26T02:40:57;99329.19;;;15.21;86.48
26719;BME280;14326;50.794;6.060;2022-10-26T02:43:25;99325.66;;;15.19;85.56
26719;BME280;14326;50.794;6.060;2022-10-26T02:45:58;99317.50;;;15.26;84.32
26719;BME280;14326;50.794;6.060;2022-10-26T02:48:29;99320.16;;;15.28;85.53
26719;BME280;14326;50.794;6.060;2022-10-26T02:50:59;99322.84;;;15.28;85.59
26719;BME280;14326;50.794;6.060;2022-10-26T02:53:30;57030.06;;;15.38;100.00
26719;BME280;14326;50.794;6.060;2022-10-26T02:56:02;57030.06;;;-142.25;100.00
26719;BME280;14326;50.794;6.060;2022-10-26T02:58:32;57030.06;;;-142.25;100.00
26719;BME280;14326;50.794;6.060;2022-10-26T03:01:02;99325.34;;;15.38;84.97
26719;BME280;14326;50.794;6.060;2022-10-26T03:03:30;99317.94;;;15.59;84.17
26719;BME280;14326;50.794;6.060;2022-10-26T03:05:57;99312.56;;;15.59;84.97
26719;BME280;14326;50.794;6.060;2022-10-26T03:08:24;99318.03;;;15.52;85.42
26719;BME280;14326;50.794;6.060;2022-10-26T03:10:50;99313.56;;;15.50;85.08
26719;BME280;14326;50.794;6.060;2022-10-26T03:13:17;99312.66;;;15.49;84.84
26719;BME280;14326;50.794;6.060;2022-10-26T03:15:44;99315.44;;;15.43;86.68
26719;BME280;14326;50.794;6.060;2022-10-26T03:18:10;99308.44;;;15.36;87.08
26719;BME280;14326;50.794;6.060;2022-10-26T03:20:39;99301.28;;;15.35;87.15
26719;BME280;14326;50.794;6.060;2022-10-26T03:23:08;99295.94;;;15.35;87.58
26719;BME280;14326;50.794;6.060;2022-10-26T03:25:36;99307.53;;;15.37;87.23
26719;BME280;14326;50.794;6.060;2022-10-26T03:28:04;99305.75;;;15.35;87.29
26719;BME280;14326;50.794;6.060;2022-10-26T03:30:32;99304.03;;;15.31;87.29
26719;BME280;14326;50.794;6.060;2022-10-26T03:32:58;99304.97;;;15.28;88.10
26719;BME280;14326;50.794;6.060;2022-10-26T03:35:25;99302.28;;;15.30;87.37
26719;BME280;14326;50.794;6.060;2022-10-26T03:37:53;99304.06;;;15.28;88.27
26719;BME280;14326;50.794;6.060;2022-10-26T03:40:20;99296.94;;;15.28;88.45
26719;BME280;14326;50.794;6.060;2022-10-26T03:42:46;99294.31;;;15.25;88.60
26719;BME280;14326;50.794;6.060;2022-10-26T03:45:13;99299.56;;;15.31;87.20
26719;BME280;14326;50.794;6.060;2022-10-26T03:47:42;99301.03;;;15.50;85.09
26719;BME280;14326;50.794;6.060;2022-10-26T03:50:10;99295.63;;;15.56;84.63
26719;BME280;14326;50.794;6.060;2022-10-26T03:52:37;99289.06;;;15.74;83.20
26719;BME280;14326;50.794;6.060;2022-10-26T03:55:06;99283.47;;;15.88;82.76
26719;BME280;14326;50.794;6.060;2022-10-26T03:57:33;99291.44;;;15.91;83.15
26719;BME280;14326;50.794;6.060;2022-10-26T04:00:00;99282.50;;;15.92;83.33
26719;BME280;14326;50.794;6.060;2022-10-26T04:02:27;99284.25;;;15.93;83.97
26719;BME280;14326;50.794;6.060;2022-10-26T04:04:54;99288.72;;;15.95;83.94
26719;BME280;14326;50.794;6.060;2022-10-26T04:07:20;99287.81;;;15.95;84.27
26719;BME280;14326;50.794;6.060;2022-10-26T04:09:47;99292.28;;;15.96;84.55
26719;BME280;14326;50.794;6.060;2022-10-26T04:12:15;99291.31;;;16.00;84.70
26719;BME280;14326;50.794;6.060;2022-10-26T04:14:42;99287.75;;;15.98;85.40
26719;BME280;14326;50.794;6.060;2022-10-26T04:17:08;99299.47;;;15.92;86.00
26719;BME280;14326;50.794;6.060;2022-10-26T04:19:35;99305.69;;;15.96;86.35
26719;BME280;14326;50.794;6.060;2022-10-26T04:22:01;99298.47;;;16.00;84.94
26719;BME280;14326;50.794;6.060;2022-10-26T04:24:28;99302.91;;;16.01;84.77
26719;BME280;14326;50.794;6.060;2022-10-26T04:26:54;99309.28;;;15.95;84.28
26719;BME280;14326;50.794;6.060;2022-10-26T04:29:22;99310.13;;;15.97;83.75
26719;BME280;14326;50.794;6.060;2022-10-26T04:31:49;99307.50;;;15.94;83.53
26719;BME280;14326;50.794;6.060;2022-10-26T04:34:16;99308.50;;;15.87;84.29
26719;BME280;14326;50.794;6.060;2022-10-26T04:36:42;99304.03;;;15.89;83.99
26719;BME280;14326;50.794;6.060;2022-10-26T04:39:09;99301.19;;;15.96;82.00
26719;BME280;14326;50.794;6.060;2022-10-26T04:41:35;99305.63;;;15.99;81.20
26719;BME280;14326;50.794;6.060;2022-10-26T04:44:02;99316.34;;;16.01;81.21
26719;BME280;14326;50.794;6.060;2022-10-26T04:46:30;99320.63;;;16.11;80.21
26719;BME280;14326;50.794;6.060;2022-10-26T04:48:56;99326.75;;;16.17;80.06
26719;BME280;14326;50.794;6.060;2022-10-26T04:51:23;99319.56;;;16.19;79.69
26719;BME280;14326;50.794;6.060;2022-10-26T04:53:52;99320.53;;;16.15;79.98
26719;BME280;14326;50.794;6.060;2022-10-26T04:56:19;99318.72;;;16.16;79.61
26719;BME280;14326;50.794;6.060;2022-10-26T04:58:45;99329.53;;;16.13;80.58
26719;BME280;14326;50.794;6.060;2022-10-26T05:01:12;99334.06;;;16.09;80.23
26719;BME280;14326;50.794;6.060;2022-10-26T05:03:40;99339.38;;;16.12;80.40
26719;BME280;14326;50.794;6.060;2022-10-26T05:06:06;99338.56;;;16.07;81.19
26719;BME280;14326;50.794;6.060;2022-10-26T05:08:33;99337.63;;;16.10;80.56
26719;BME280;14326;50.794;6.060;2022-10-26T05:11:00;99333.25;;;16.04;81.08
26719;BME280;14326;50.794;6.060;2022-10-26T05:13:26;99330.63;;;16.01;82.47
26719;BME280;14326;50.794;6.060;2022-10-26T05:15:53;99345.88;;;15.97;84.59
26719;BME280;14326;50.794;6.060;2022-10-26T05:18:19;99336.22;;;15.89;84.89
26719;BME280;14326;50.794;6.060;2022-10-26T05:20:47;99346.97;;;15.86;86.39
26719;BME280;14326;50.794;6.060;2022-10-26T05:23:17;99353.41;;;15.76;88.90
26719;BME280;14326;50.794;6.060;2022-10-26T05:25:44;99349.09;;;15.66;91.74
26719;BME280;14326;50.794;6.060;2022-10-26T05:28:12;99352.78;;;15.60;92.62
26719;BME280;14326;50.794;6.060;2022-10-26T05:30:40;99356.44;;;15.51;95.42
26719;BME280;14326;50.794;6.060;2022-10-26T05:33:08;99378.94;;;15.41;96.88
26719;BME280;14326;50.794;6.060;2022-10-26T05:35:35;99369.19;;;15.34;98.63
26719;BME280;14326;50.794;6.060;2022-10-26T05:38:07;99368.47;;;15.22;100.00
26719;BME280;14326;50.794;6.060;2022-10-26T05:40:35;99363.34;;;15.06;100.00
26719;BME280;14326;50.794;6.060;2022-10-26T05:43:02;99356.28;;;14.98;100.00
26719;BME280;14326;50.794;6.060;2022-10-26T05:45:28;99367.06;;;14.92;100.00
26719;BME280;14326;50.794;6.060;2022-10-26T05:47:55;99368.94;;;14.87;100.00
26719;BME280;14326;50.794;6.060;2022-10-26T05:50:22;99366.31;;;14.81;100.00
26719;BME280;14326;50.794;6.060;2022-10-26T05:52:48;99372.63;;;14.75;100.00
26719;BME280;14326;50.794;6.060;2022-10-26T05:55:17;99372.72;;;14.67;100.00
26719;BME280;14326;50.794;6.060;2022-10-26T05:57:45;99372.78;;;14.63;100.00
26719;BME280;14326;50.794;6.060;2022-10-26T06:00:15;99374.63;;;14.58;100.00
26719;BME280;14326;50.794;6.060;2022-10-26T06:02:53;99380.03;;;14.53;100.00
26719;BME280;14326;50.794;6.060;2022-10-26T06:05:27;99380.03;;;14.50;100.00
26719;BME280;14326;50.794;6.060;2022-10-26T06:07:55;99379.22;;;14.45;100.00
26719;BME280;14326;50.794;6.060;2022-10-26T06:10:23;99383.72;;;14.42;100.00
26719;BME280;14326;50.794;6.060;2022-10-26T06:12:51;99372.16;;;14.38;100.00
26719;BME280;14326;50.794;6.060;2022-10-26T06:15:19;99376.63;;;14.36;100.00
26719;BME280;14326;50.794;6.060;2022-10-26T06:17:54;99378.41;;;14.34;100.00
26719;BME280;14326;50.794;6.060;2022-10-26T06:20:33;99389.16;;;14.28;100.00
26719;BME280;14326;50.794;6.060;2022-10-26T06:23:16;99389.22;;;14.25;100.00
26719;BME280;14326;50.794;6.060;2022-10-26T06:25:52;99390.09;;;14.24;100.00
26719;BME280;14326;50.794;6.060;2022-10-26T06:28:29;99397.25;;;14.22;100.00
26719;BME280;14326;50.794;6.060;2022-10-26T06:31:00;99395.47;;;14.24;100.00
26719;BME280;14326;50.794;6.060;2022-10-26T06:33:27;99399.91;;;14.23;100.00
26719;BME280;14326;50.794;6.060;2022-10-26T06:36:01;99401.72;;;14.21;100.00
26719;BME280;14326;50.794;6.060;2022-10-26T06:38:34;99415.09;;;14.21;100.00
26719;BME280;14326;50.794;6.060;2022-10-26T06:41:03;99416.91;;;14.19;100.00
26719;BME280;14326;50.794;6.060;2022-10-26T06:43:32;99413.34;;;14.17;100.00
26719;BME280;14326;50.794;6.060;2022-10-26T06:46:06;99406.22;;;14.18;100.00
26719;BME280;14326;50.794;6.060;2022-10-26T06:48:46;99411.56;;;14.15;100.00
26719;BME280;14326;50.794;6.060;2022-10-26T06:51:14;99415.13;;;14.14;100.00
26719;BME280;14326;50.794;6.060;2022-10-26T06:53:48;99415.13;;;14.14;100.00
26719;BME280;14326;50.794;6.060;2022-10-26T06:56:18;99408.94;;;14.13;100.00
26719;BME280;14326;50.794;6.060;2022-10-26T06:58:45;99405.34;;;14.14;100.00
26719;BME280;14326;50.794;6.060;2022-10-26T07:01:14;99406.22;;;14.15;100.00
26719;BME280;14326;50.794;6.060;2022-10-26T07:03:41;99410.72;;;14.13;100.00
26719;BME280;14326;50.794;6.060;2022-10-26T07:06:08;99399.97;;;14.14;100.00
26719;BME280;14326;50.794;6.060;2022-10-26T07:08:35;99400.91;;;14.13;100.00
26719;BME280;14326;50.794;6.060;2022-10-26T07:11:02;99396.41;;;14.17;100.00
26719;BME280;14326;50.794;6.060;2022-10-26T07:13:30;99381.75;;;14.60;100.00
26719;BME280;14326;50.794;6.060;2022-10-26T07:15:57;99394.44;;;15.81;100.00
26719;BME280;14326;50.794;6.060;2022-10-26T07:18:23;99380.81;;;16.94;96.96
26719;BME280;14326;50.794;6.060;2022-10-26T07:20:50;99384.44;;;18.10;89.05
26719;BME280;14326;50.794;6.060;2022-10-26T07:23:16;99388.88;;;19.13;81.15
26719;BME280;14326;50.794;6.060;2022-10-26T07:25:43;99385.31;;;19.99;74.89
26719;BME280;14326;50.794;6.060;2022-10-26T07:28:10;99388.19;;;20.73;71.28
26719;BME280;14326;50.794;6.060;2022-10-26T07:30:39;99391.06;;;21.65;67.99
26719;BME280;14326;50.794;6.060;2022-10-26T07:33:08;99399.25;;;22.30;64.57
26719;BME280;14326;50.794;6.060;2022-10-26T07:35:35;99399.16;;;22.54;62.27
26719;BME280;14326;50.794;6.060;2022-10-26T07:38:02;99401.69;;;22.99;60.36
26719;BME280;14326;50.794;6.060;2022-10-26T07:40:29;99411.16;;;23.29;59.73
26719;BME280;14326;50.794;6.060;2022-10-26T07:42:56;99410.66;;;23.40;59.05
26719;BME280;14326;50.794;6.060;2022-10-26T07:45:23;99415.53;;;23.91;56.23
26719;BME280;14326;50.794;6.060;2022-10-26T07:47:52;99417.19;;;23.75;57.17
26719;BME280;14326;50.794;6.060;2022-10-26T07:50:21;99430.50;;;23.62;56.35
26719;BME280;14326;50.794;6.060;2022-10-26T07:52:47;99433.88;;;22.66;59.41
26719;BME280;14326;50.794;6.060;2022-10-26T07:55:16;99437.75;;;21.95;61.81
26719;BME280;14326;50.794;6.060;2022-10-26T07:57:43;99434.47;;;20.64;67.66
26719;BME280;14326;50.794;6.060;2022-10-26T08:00:11;99443.59;;;20.06;69.95
26719;BME280;14326;50.794;6.060;2022-10-26T08:02:38;99454.56;;;19.72;71.42
26719;BME280;14326;50.794;6.060;2022-10-26T08:05:07;99448.22;;;19.11;74.63
26719;BME280;14326;50.794;6.060;2022-10-26T08:07:39;99444.28;;;18.58;77.29
26719;BME280;14326;50.794;6.060;2022-10-26T08:10:06;99447.19;;;18.14;79.83
26719;BME280;14326;50.794;6.060;2022-10-26T08:12:33;99453.22;;;18.60;78.73
26719;BME280;14326;50.794;6.060;2022-10-26T08:14:59;99459.81;;;19.47;74.85
26719;BME280;14326;50.794;6.060;2022-10-26T08:17:27;99461.19;;;19.30;75.34
26719;BME280;14326;50.794;6.060;2022-10-26T08:19:54;99467.41;;;19.01;75.60
26719;BME280;14326;50.794;6.060;2022-10-26T08:22:22;99466.88;;;18.51;78.73
26719;BME280;14326;50.794;6.060;2022-10-26T08:24:48;99461.66;;;18.45;79.62
26719;BME280;14326;50.794;6.060;2022-10-26T08:27:15;99474.78;;;18.22;81.45
26719;BME280;14326;50.794;6.060;2022-10-26T08:29:42;99475.06;;;18.11;82.89
26719;BME280;14326;50.794;6.060;2022-10-26T08:32:09;99486.84;;;18.06;83.51
26719;BME280;14326;50.794;6.060;2022-10-26T08:34:36;99473.44;;;18.02;84.07
26719;BME280;14326;50.794;6.060;2022-10-26T08:37:03;99499.59;;;17.97;84.29
26719;BME280;14326;50.794;6.060;2022-10-26T08:39:31;99501.44;;;17.95;84.64
26719;BME280;14326;50.794;6.060;2022-10-26T08:42:03;99513.00;;;18.00;85.17
26719;BME280;14326;50.794;6.060;2022-10-26T08:44:36;99513.09;;;17.96;85.43
26719;BME280;14326;50.794;6.060;2022-10-26T08:47:08;99512.91;;;18.04;85.87
26719;BME280;14326;50.794;6.060;2022-10-26T08:49:41;99514.78;;;18.02;84.96
26719;BME280;14326;50.794;6.060;2022-10-26T08:52:12;99520.03;;;18.06;86.39
26719;BME280;14326;50.794;6.060;2022-10-26T08:54:43;99529.06;;;18.04;85.66
26719;BME280;14326;50.794;6.060;2022-10-26T08:57:16;99524.53;;;18.06;85.42
26719;BME280;14326;50.794;6.060;2022-10-26T08:59:49;99525.41;;;18.08;85.74
26719;BME280;14326;50.794;6.060;2022-10-26T09:02:19;99530.81;;;18.06;86.33
26719;BME280;14326;50.794;6.060;2022-10-26T09:04:47;99536.31;;;18.02;86.53
26719;BME280;14326;50.794;6.060;2022-10-26T09:07:28;99536.31;;;18.02;85.87
26719;BME280;14326;50.794;6.060;2022-10-26T09:10:10;99534.59;;;17.97;86.50
26719;BME280;14326;50.794;6.060;2022-10-26T09:12:46;99540.75;;;18.02;86.57
26719;BME280;14326;50.794;6.060;2022-10-26T09:15:28;99542.53;;;18.04;85.76
26719;BME280;14326;50.794;6.060;2022-10-26T09:18:05;99534.44;;;18.04;86.53
26719;BME280;14326;50.794;6.060;2022-10-26T09:21:01;99539.00;;;18.02;86.29
26719;BME280;14326;50.794;6.060;2022-10-26T09:23:56;99538.13;;;17.99;86.73
26719;BME280;14326;50.794;6.060;2022-10-26T09:26:33;99548.00;;;17.99;87.22
26719;BME280;14326;50.794;6.060;2022-10-26T09:29:05;99555.03;;;18.06;87.26
26719;BME280;14326;50.794;6.060;2022-10-26T09:31:39;99571.97;;;18.11;86.53
26719;BME280;14326;50.794;6.060;2022-10-26T09:34:06;99562.97;;;18.14;86.84
26719;BME280;14326;50.794;6.060;2022-10-26T09:36:37;99569.16;;;18.16;86.89
26719;BME280;14326;50.794;6.060;2022-10-26T09:39:14;99564.66;;;18.18;85.95
26719;BME280;14326;50.794;6.060;2022-10-26T09:41:48;99568.13;;;18.23;85.92
26719;BME280;14326;50.794;6.060;2022-10-26T09:44:23;99574.53;;;18.17;85.58
26719;BME280;14326;50.794;6.060;2022-10-26T09:46:55;99574.41;;;18.23;86.28
26719;BME280;14326;50.794;6.060;2022-10-26T09:49:28;99578.72;;;18.30;86.47
26719;BME280;14326;50.794;6.060;2022-10-26T09:51:58;99584.13;;;18.29;85.14
26719;BME280;14326;50.794;6.060;2022-10-26T09:54:24;99578.66;;;18.32;86.01
26719;BME280;14326;50.794;6.060;2022-10-26T09:56:55;99592.94;;;18.37;85.64
26719;BME280;14326;50.794;6.060;2022-10-26T09:59:24;99591.81;;;18.46;85.17
26719;BME280;14326;50.794;6.060;2022-10-26T10:01:51;99594.41;;;18.50;85.25
26719;BME280;14326;50.794;6.060;2022-10-26T10:04:20;99605.16;;;18.52;84.48
26719;BME280;14326;50.794;6.060;2022-10-26T10:06:49;99596.19;;;18.51;83.30
26719;BME280;14326;50.794;6.060;2022-10-26T10:09:17;99613.31;;;18.49;83.68
26719;BME280;14326;50.794;6.060;2022-10-26T10:11:47;99611.41;;;18.55;83.44
26719;BME280;14326;50.794;6.060;2022-10-26T10:14:22;99622.88;;;18.63;82.96
26719;BME280;14326;50.794;6.060;2022-10-26T10:16:50;99633.66;;;18.63;83.52
26719;BME280;14326;50.794;6.060;2022-10-26T10:19:23;99626.44;;;18.65;83.60
26719;BME280;14326;50.794;6.060;2022-10-26T10:21:57;99635.25;;;18.72;84.16
26719;BME280;14326;50.794;6.060;2022-10-26T10:24:28;99627.94;;;18.78;83.32
26719;BME280;14326;50.794;6.060;2022-10-26T10:26:59;99633.06;;;18.88;83.33
26719;BME280;14326;50.794;6.060;2022-10-26T10:29:29;99637.56;;;18.89;82.12
26719;BME280;14326;50.794;6.060;2022-10-26T10:31:58;99639.97;;;18.99;81.49
26719;BME280;14326;50.794;6.060;2022-10-26T10:34:25;99644.41;;;19.02;81.05
26719;BME280;14326;50.794;6.060;2022-10-26T10:36:52;99652.44;;;19.03;80.65
26719;BME280;14326;50.794;6.060;2022-10-26T10:39:35;99638.19;;;19.00;81.73
26719;BME280;14326;50.794;6.060;2022-10-26T10:42:04;99644.41;;;19.02;81.80
26719;BME280;14326;50.794;6.060;2022-10-26T10:44:33;99647.03;;;19.05;82.08
26719;BME280;14326;50.794;6.060;2022-10-26T10:47:01;99647.94;;;19.04;81.74
26719;BME280;14326;50.794;6.060;2022-10-26T10:49:30;99645.09;;;19.10;81.66
26719;BME280;14326;50.794;6.060;2022-10-26T10:51:57;99653.97;;;19.15;81.92
26719;BME280;14326;50.794;6.060;2022-10-26T10:54:28;99647.47;;;19.23;81.79
26719;BME280;14326;50.794;6.060;2022-10-26T10:57:04;99647.28;;;19.31;81.26
26719;BME280;14326;50.794;6.060;2022-10-26T11:00:00;99652.41;;;19.40;81.78
26719;BME280;14326;50.794;6.060;2022-10-26T11:06:03;99665.50;;;19.57;81.05
26719;BME280;14326;50.794;6.060;2022-10-26T11:08:37;99661.41;;;19.75;80.28
26719;BME280;14326;50.794;6.060;2022-10-26T11:11:08;99671.16;;;19.80;77.58
26719;BME280;14326;50.794;6.060;2022-10-26T11:13:43;99667.53;;;19.81;77.43
26719;BME280;14326;50.794;6.060;2022-10-26T11:16:18;99665.75;;;19.80;78.71
26719;BME280;14326;50.794;6.060;2022-10-26T11:18:49;99671.84;;;19.88;79.78
26719;BME280;14326;50.794;6.060;2022-10-26T11:21:22;99680.69;;;19.93;77.43
26719;BME280;14326;50.794;6.060;2022-10-26T11:23:56;99671.69;;;19.93;77.21
26719;BME280;14326;50.794;6.060;2022-10-26T11:26:28;99670.88;;;19.91;77.16
26719;BME280;14326;50.794;6.060;2022-10-26T11:29:00;99674.53;;;19.88;77.20
26719;BME280;14326;50.794;6.060;2022-10-26T11:31:33;99678.91;;;19.92;77.51
26719;BME280;14326;50.794;6.060;2022-10-26T11:34:12;99683.25;;;19.98;77.69
26719;BME280;14326;50.794;6.060;2022-10-26T11:36:42;99693.09;;;20.00;78.75
26719;BME280;14326;50.794;6.060;2022-10-26T11:39:18;99696.69;;;20.01;77.39
26719;BME280;14326;50.794;6.060;2022-10-26T11:41:50;99686.72;;;20.03;77.98
26719;BME280;14326;50.794;6.060;2022-10-26T11:44:24;99683.84;;;20.09;78.25
26719;BME280;14326;50.794;6.060;2022-10-26T11:46:59;99691.84;;;20.14;77.70
26719;BME280;14326;50.794;6.060;2022-10-26T11:49:29;99694.38;;;20.20;77.74
26719;BME280;14326;50.794;6.060;2022-10-26T11:52:02;99690.53;;;20.27;77.00
26719;BME280;14326;50.794;6.060;2022-10-26T11:54:36;99701.09;;;20.37;76.29
26719;BME280;14326;50.794;6.060;2022-10-26T11:57:05;99702.09;;;20.33;75.86
26719;BME280;14326;50.794;6.060;2022-10-26T11:59:35;99702.00;;;20.36;75.95
26719;BME280;14326;50.794;6.060;2022-10-26T12:02:09;99704.59;;;20.39;75.99
26719;BME280;14326;50.794;6.060;2022-10-26T12:04:40;99703.50;;;20.47;75.06
26719;BME280;14326;50.794;6.060;2022-10-26T12:07:19;99717.13;;;20.43;74.75
26719;BME280;14326;50.794;6.060;2022-10-26T12:09:47;99708.84;;;20.50;73.95
26719;BME280;14326;50.794;6.060;2022-10-26T12:12:18;99719.84;;;20.42;73.13
26719;BME280;14326;50.794;6.060;2022-10-26T12:14:51;99717.06;;;20.45;72.16
26719;BME280;14326;50.794;6.060;2022-10-26T12:17:25;99715.22;;;20.46;72.04
26719;BME280;14326;50.794;6.060;2022-10-26T12:20:00;99710.56;;;20.51;71.60
26719;BME280;14326;50.794;6.060;2022-10-26T12:22:32;99712.13;;;20.59;72.31
26719;BME280;14326;50.794;6.060;2022-10-26T12:25:18;99714.72;;;20.62;72.30
26719;BME280;14326;50.794;6.060;2022-10-26T12:27:51;99710.19;;;20.64;71.31
26719;BME280;14326;50.794;6.060;2022-10-26T12:30:29;99719.03;;;20.69;72.22
26719;BME280;14326;50.794;6.060;2022-10-26T12:32:58;99715.31;;;20.73;72.18
26719;BME280;14326;50.794;6.060;2022-10-26T12:35:46;99716.88;;;20.80;72.49
26719;BME280;14326;50.794;6.060;2022-10-26T12:41:30;99717.19;;;20.99;70.59
26719;BME280;14326;50.794;6.060;2022-10-26T12:44:01;99711.50;;;21.08;70.36
26719;BME280;14326;50.794;6.060;2022-10-26T12:46:39;99734.69;;;21.17;68.62
26719;BME280;14326;50.794;6.060;2022-10-26T12:52:45;99746.94;;;21.29;67.34
26719;BME280;14326;50.794;6.060;2022-10-26T12:58:29;99752.28;;;21.32;65.57
26719;BME280;14326;50.794;6.060;2022-10-26T13:04:12;99762.13;;;21.33;65.64
26719;BME280;14326;50.794;6.060;2022-10-26T13:06:58;99762.91;;;21.38;64.42
26719;BME280;14326;50.794;6.060;2022-10-26T13:09:37;99759.34;;;21.36;63.45
26719;BME280;14326;50.794;6.060;2022-10-26T13:12:04;99761.28;;;21.32;64.63
26719;BME280;14326;50.794;6.060;2022-10-26T13:14:33;99757.56;;;21.35;64.36
26719;BME280;14326;50.794;6.060;2022-10-26T13:17:03;99775.38;;;21.42;64.92
26719;BME280;14326;50.794;6.060;2022-10-26T13:19:31;99775.38;;;21.42;63.10
26719;BME280;14326;50.794;6.060;2022-10-26T13:22:03;99776.34;;;21.39;61.43
26719;BME280;14326;50.794;6.060;2022-10-26T13:24:31;99781.72;;;21.41;61.13
26719;BME280;14326;50.794;6.060;2022-10-26T13:27:39;99780.69;;;21.45;61.44
26719;BME280;14326;50.794;6.060;2022-10-26T13:33:19;99775.38;;;21.42;61.33
26719;BME280;14326;50.794;6.060;2022-10-26T13:35:53;99776.34;;;21.39;60.89
26719;BME280;14326;50.794;6.060;2022-10-26T13:38:24;99778.28;;;21.36;62.05
26719;BME280;14326;50.794;6.060;2022-10-26T13:41:11;99777.53;;;21.32;61.66